createdAt,value
2023-03-22T00:01:14.115Z,55.75
2023-03-22T00:03:16.477Z,55.72
2023-03-22T00:05:18.141Z,55.84
2023-03-22T00:07:19.889Z,55.49
2023-03-22T00:09:21.598Z,55.36
2023-03-22T00:11:24.930Z,55.49
2023-03-22T00:13:26.679Z,55.54
2023-03-22T00:15:28.351Z,55.43
2023-03-22T00:17:29.969Z,55.79
2023-03-22T00:19:31.761Z,56.07
2023-03-22T00:21:33.439Z,56.15
2023-03-22T00:23:35.043Z,56.54
2023-03-22T00:25:36.824Z,56.65
2023-03-22T00:27:39.942Z,56.59
2023-03-22T00:29:41.804Z,56.36
2023-03-22T00:31:43.594Z,56.11
2023-03-22T00:33:45.179Z,56.10
2023-03-22T00:35:51.679Z,55.96
2023-03-22T00:37:53.357Z,55.57
2023-03-22T00:39:54.901Z,55.83
2023-03-22T00:41:56.504Z,55.77
2023-03-22T00:43:59.528Z,55.63
2023-03-22T00:46:01.209Z,55.64
2023-03-22T00:48:02.859Z,55.49
2023-03-22T00:50:06.440Z,55.68
2023-03-22T00:52:08.050Z,55.55
2023-03-22T00:54:09.628Z,55.67
2023-03-22T00:56:12.201Z,55.54
2023-03-22T00:58:13.757Z,55.67
2023-03-22T01:00:17.840Z,55.67
2023-03-22T01:02:19.910Z,55.86
2023-03-22T01:04:21.592Z,55.65
2023-03-22T01:06:23.193Z,55.90
2023-03-22T01:08:24.809Z,55.83
2023-03-22T01:10:26.624Z,55.92
2023-03-22T01:12:28.242Z,55.78
2023-03-22T01:14:30.060Z,55.79
2023-03-22T01:16:33.144Z,55.85
2023-03-22T01:18:35.807Z,55.79
2023-03-22T01:20:37.609Z,56.12
2023-03-22T01:22:39.484Z,56.07
2023-03-22T01:24:41.060Z,56.15
2023-03-22T01:26:42.806Z,56.38
2023-03-22T01:28:44.604Z,56.32
2023-03-22T01:30:46.301Z,56.50
2023-03-22T01:32:49.426Z,56.51
2023-03-22T01:34:51.248Z,56.50
2023-03-22T01:36:53.824Z,56.54
2023-03-22T01:38:55.498Z,56.59
2023-03-22T01:40:59.953Z,56.60
2023-03-22T01:43:01.667Z,56.53
2023-03-22T01:45:40.896Z,56.72
2023-03-22T01:47:46.022Z,56.77
2023-03-22T01:49:49.451Z,57.18
2023-03-22T01:51:54.853Z,57.26
2023-03-22T01:54:00.210Z,57.26
2023-03-22T01:56:03.122Z,57.17
2023-03-22T01:58:11.234Z,56.99
2023-03-22T02:00:14.072Z,57.43
2023-03-22T02:02:16.996Z,57.06
2023-03-22T02:04:21.630Z,57.31
2023-03-22T02:06:26.744Z,57.54
2023-03-22T02:08:29.112Z,56.83
2023-03-22T02:10:31.101Z,56.91
2023-03-22T02:12:43.413Z,56.87
2023-03-22T02:15:02.910Z,57.23
2023-03-22T02:17:17.236Z,57.36
2023-03-22T02:19:59.109Z,57.31
2023-03-22T02:22:33.011Z,57.46
2023-03-22T02:24:54.833Z,57.42
2023-03-22T02:27:17.829Z,56.89
2023-03-22T02:29:27.482Z,57.06
2023-03-22T02:31:58.490Z,57.23
2023-03-22T02:34:17.173Z,57.06
2023-03-22T02:36:37.726Z,56.97
2023-03-22T02:39:12.530Z,56.95
2023-03-22T02:41:23.998Z,57.12
2023-03-22T02:43:34.551Z,57.36
2023-03-22T02:45:45.814Z,57.45
2023-03-22T02:47:56.064Z,57.43
2023-03-22T02:50:03.392Z,57.39
2023-03-22T02:52:12.664Z,57.53
2023-03-22T02:54:21.426Z,57.43
2023-03-22T02:56:27.279Z,57.47
2023-03-22T02:58:32.832Z,57.56
2023-03-22T03:00:36.954Z,57.58
2023-03-22T03:02:43.678Z,57.59
2023-03-22T03:04:54.027Z,57.60
2023-03-22T03:07:00.105Z,57.80
2023-03-22T03:09:02.979Z,57.65
2023-03-22T03:11:06.729Z,57.56
2023-03-22T03:13:12.592Z,57.55
2023-03-22T03:15:17.072Z,57.74
2023-03-22T03:17:30.539Z,57.83
2023-03-22T03:19:37.431Z,57.76
2023-03-22T03:21:49.574Z,57.75
2023-03-22T03:24:00.741Z,57.65
2023-03-22T03:26:09.450Z,57.57
2023-03-22T03:28:17.940Z,57.60
2023-03-22T03:30:24.397Z,57.48
2023-03-22T03:32:29.505Z,57.67
2023-03-22T03:34:39.560Z,57.64
2023-03-22T03:36:46.061Z,57.72
2023-03-22T03:38:51.686Z,57.32
2023-03-22T03:40:57.578Z,57.51
2023-03-22T03:43:03.332Z,57.37
2023-03-22T03:45:07.190Z,57.45
2023-03-22T03:47:10.797Z,57.70
2023-03-22T03:49:14.282Z,57.37
2023-03-22T03:51:16.065Z,57.52
2023-03-22T03:53:17.749Z,57.55
2023-03-22T03:55:20.248Z,57.63
2023-03-22T03:57:21.810Z,57.65
2023-03-22T03:59:24.912Z,57.66
2023-03-22T04:01:26.489Z,57.59
2023-03-22T04:03:28.184Z,57.74
2023-03-22T04:05:29.835Z,57.08
2023-03-22T04:07:34.477Z,57.63
2023-03-22T04:09:38.297Z,57.75
2023-03-22T04:11:39.927Z,57.72
2023-03-22T04:13:41.549Z,57.34
2023-03-22T04:15:44.550Z,57.40
2023-03-22T04:17:46.179Z,57.51
2023-03-22T04:19:47.836Z,57.42
2023-03-22T04:21:49.478Z,57.53
2023-03-22T04:23:51.082Z,57.75
2023-03-22T04:25:52.719Z,57.69
2023-03-22T04:27:54.286Z,57.56
2023-03-22T04:29:55.991Z,57.74
2023-03-22T04:31:58.968Z,57.60
2023-03-22T04:34:00.567Z,57.77
2023-03-22T04:36:04.478Z,57.90
2023-03-22T04:38:06.177Z,57.78
2023-03-22T04:40:09.218Z,57.67
2023-03-22T04:42:11.344Z,58.10
2023-03-22T04:44:12.958Z,58.13
2023-03-22T04:46:14.596Z,58.06
2023-03-22T04:48:17.650Z,57.83
2023-03-22T04:50:19.380Z,58.05
2023-03-22T04:52:21.035Z,58.31
2023-03-22T04:54:23.349Z,58.55
2023-03-22T04:56:25.250Z,58.55
2023-03-22T04:58:27.234Z,58.54
2023-03-22T05:00:28.884Z,58.25
2023-03-22T05:02:30.456Z,58.34
2023-03-22T05:04:33.452Z,58.19
2023-03-22T05:06:35.031Z,58.14
2023-03-22T05:08:36.542Z,58.04
2023-03-22T05:10:39.956Z,58.40
2023-03-22T05:12:41.782Z,58.25
2023-03-22T05:14:43.554Z,58.37
2023-03-22T05:16:45.117Z,58.49
2023-03-22T05:18:46.742Z,58.31
2023-03-22T05:20:49.674Z,58.48
2023-03-22T05:22:51.264Z,58.47
2023-03-22T05:24:52.850Z,58.62
2023-03-22T05:26:54.451Z,58.87
2023-03-22T05:28:56.668Z,59.02
2023-03-22T05:30:58.765Z,59.18
2023-03-22T05:33:01.333Z,58.98
2023-03-22T05:35:03.084Z,59.08
2023-03-22T05:37:06.095Z,58.93
2023-03-22T05:39:07.709Z,59.04
2023-03-22T05:41:09.657Z,59.07
2023-03-22T05:43:11.866Z,59.06
2023-03-22T05:45:13.867Z,58.97
2023-03-22T05:47:15.491Z,59.32
2023-03-22T05:49:17.086Z,59.42
2023-03-22T05:51:18.627Z,59.34
2023-03-22T05:53:21.532Z,59.43
2023-03-22T05:55:23.370Z,59.55
2023-03-22T05:57:25.020Z,59.39
2023-03-22T05:59:26.746Z,59.43
2023-03-22T06:01:28.498Z,59.72
2023-03-22T06:03:30.226Z,59.51
2023-03-22T06:05:32.834Z,59.57
2023-03-22T06:07:34.421Z,59.39
2023-03-22T06:09:37.368Z,59.59
2023-03-22T06:11:38.908Z,59.52
2023-03-22T06:13:40.703Z,59.49
2023-03-22T06:15:42.224Z,59.59
2023-03-22T06:17:43.788Z,59.45
2023-03-22T06:19:45.588Z,59.42
2023-03-22T06:21:47.458Z,59.30
2023-03-22T06:23:49.104Z,58.73
2023-03-22T06:25:52.304Z,58.99
2023-03-22T06:27:53.847Z,58.97
2023-03-22T06:29:55.566Z,58.88
2023-03-22T06:31:57.250Z,58.82
2023-03-22T06:33:59.044Z,58.81
2023-03-22T06:36:00.627Z,58.86
2023-03-22T06:38:02.261Z,58.84
2023-03-22T06:40:04.452Z,58.88
2023-03-22T06:42:07.413Z,58.83
2023-03-22T06:44:09.031Z,58.72
2023-03-22T06:46:10.734Z,58.54
2023-03-22T06:48:12.766Z,58.53
2023-03-22T06:50:14.493Z,58.55
2023-03-22T06:52:20.931Z,58.51
2023-03-22T06:54:22.518Z,58.27
2023-03-22T06:56:24.427Z,58.31
2023-03-22T06:58:27.807Z,57.98
2023-03-22T07:00:30.029Z,57.76
2023-03-22T07:02:31.691Z,57.34
2023-03-22T07:04:33.835Z,57.32
2023-03-22T07:06:35.531Z,56.92
2023-03-22T07:08:37.305Z,56.71
2023-03-22T07:10:39.235Z,56.62
2023-03-22T07:12:41.499Z,56.20
2023-03-22T07:14:44.790Z,56.04
2023-03-22T07:16:46.877Z,55.72
2023-03-22T07:18:48.701Z,55.41
2023-03-22T07:20:50.414Z,55.24
2023-03-22T07:22:52.030Z,55.22
2023-03-22T07:24:57.840Z,54.95
2023-03-22T07:27:00.735Z,54.92
2023-03-22T07:29:04.892Z,54.55
2023-03-22T07:31:09.886Z,54.22
2023-03-22T07:33:13.724Z,54.19
2023-03-22T07:35:15.810Z,54.58
2023-03-22T07:37:17.778Z,54.29
2023-03-22T07:39:19.615Z,54.51
2023-03-22T07:41:26.267Z,55.00
2023-03-22T07:43:28.336Z,54.52
2023-03-22T07:45:32.145Z,54.63
2023-03-22T07:47:41.153Z,54.63
2023-03-22T07:49:43.233Z,54.92
2023-03-22T07:51:45.352Z,54.90
2023-03-22T07:53:46.956Z,54.74
2023-03-22T07:55:49.799Z,54.70
2023-03-22T07:57:51.510Z,54.11
2023-03-22T07:59:53.251Z,53.80
2023-03-22T08:01:55.034Z,53.63
2023-03-22T08:03:58.430Z,53.79
2023-03-22T08:06:01.745Z,53.71
2023-03-22T08:08:03.428Z,53.88
2023-03-22T08:10:05.998Z,53.72
2023-03-22T08:12:07.764Z,53.35
2023-03-22T08:14:09.889Z,53.83
2023-03-22T08:16:11.816Z,53.68
2023-03-22T08:18:15.660Z,52.62
2023-03-22T08:20:19.098Z,52.68
2023-03-22T08:22:20.989Z,53.78
2023-03-22T08:24:22.780Z,53.00
2023-03-22T08:26:24.482Z,52.27
2023-03-22T08:28:26.404Z,52.04
2023-03-22T08:30:29.652Z,52.49
2023-03-22T08:32:32.696Z,52.89
2023-03-22T08:34:37.063Z,53.08
2023-03-22T08:36:40.095Z,53.06
2023-03-22T08:38:41.730Z,52.60
2023-03-22T08:40:46.582Z,51.93
2023-03-22T08:42:48.437Z,52.23
2023-03-22T08:44:50.004Z,51.28
2023-03-22T08:46:51.715Z,51.39
2023-03-22T08:48:53.460Z,50.79
2023-03-22T08:50:55.135Z,50.21
2023-03-22T08:52:58.160Z,49.94
2023-03-22T08:54:59.879Z,50.78
2023-03-22T08:57:01.525Z,48.44
2023-03-22T08:59:03.305Z,48.93
2023-03-22T09:01:05.435Z,49.14
2023-03-22T09:03:07.294Z,48.48
2023-03-22T09:05:09.821Z,48.06
2023-03-22T09:07:11.537Z,47.29
2023-03-22T09:09:15.185Z,47.75
2023-03-22T09:11:18.066Z,48.04
2023-03-22T09:13:27.987Z,48.80
2023-03-22T09:15:29.722Z,47.82
2023-03-22T09:17:31.687Z,48.02
2023-03-22T09:19:34.809Z,47.39
2023-03-22T09:21:37.606Z,47.53
2023-03-22T09:23:39.807Z,48.01
2023-03-22T09:25:45.151Z,47.62
2023-03-22T09:27:46.797Z,45.89
2023-03-22T09:29:48.475Z,45.70
2023-03-22T09:31:50.194Z,45.30
2023-03-22T09:33:51.847Z,46.52
2023-03-22T09:35:54.209Z,44.20
2023-03-22T09:37:57.502Z,42.97
2023-03-22T09:39:59.124Z,43.37
2023-03-22T09:42:07.087Z,42.82
2023-03-22T09:44:15.650Z,43.27
2023-03-22T09:46:22.758Z,43.83
2023-03-22T09:48:31.250Z,41.97
2023-03-22T09:50:34.759Z,42.71
2023-03-22T09:52:36.681Z,42.39
2023-03-22T09:54:42.145Z,41.18
2023-03-22T09:56:47.222Z,42.25
2023-03-22T09:58:56.127Z,41.24
2023-03-22T10:01:00.706Z,42.82
2023-03-22T10:03:16.753Z,41.11
2023-03-22T10:05:26.986Z,42.55
2023-03-22T10:07:35.003Z,43.97
2023-03-22T10:09:49.188Z,42.38
2023-03-22T10:11:57.821Z,42.02
2023-03-22T10:14:08.884Z,43.89
2023-03-22T10:16:13.239Z,42.56
2023-03-22T10:18:19.996Z,43.14
2023-03-22T10:20:32.002Z,42.98
2023-03-22T10:22:37.368Z,43.04
2023-03-22T10:24:41.187Z,42.96
2023-03-22T10:26:46.448Z,43.19
2023-03-22T10:28:55.142Z,42.35
2023-03-22T10:30:58.856Z,43.30
2023-03-22T10:33:02.589Z,43.29
2023-03-22T10:35:04.823Z,42.77
2023-03-22T10:37:10.044Z,42.66
2023-03-22T10:39:19.319Z,43.33
2023-03-22T10:41:24.557Z,43.46
2023-03-22T10:43:32.401Z,42.54
2023-03-22T10:45:35.835Z,42.63
2023-03-22T10:47:43.653Z,40.42
2023-03-22T10:49:49.445Z,40.62
2023-03-22T10:51:56.159Z,39.52
2023-03-22T10:53:58.946Z,38.84
2023-03-22T10:56:00.644Z,38.71
2023-03-22T10:58:12.608Z,38.61
2023-03-22T11:00:16.339Z,38.76
2023-03-22T11:02:22.985Z,38.15
2023-03-22T11:04:26.404Z,38.95
2023-03-22T11:06:29.993Z,38.69
2023-03-22T11:08:39.268Z,38.00
2023-03-22T11:10:41.011Z,37.43
2023-03-22T11:12:48.144Z,37.06
2023-03-22T11:14:51.934Z,36.94
2023-03-22T11:16:56.565Z,36.01
2023-03-22T11:19:01.645Z,36.67
2023-03-22T11:21:09.868Z,35.23
2023-03-22T11:23:13.162Z,34.20
2023-03-22T11:25:18.194Z,34.60
2023-03-22T11:27:22.747Z,32.56
2023-03-22T11:29:24.445Z,34.32
2023-03-22T11:31:26.406Z,33.56
2023-03-22T11:33:28.680Z,33.40
2023-03-22T11:35:31.520Z,33.18
2023-03-22T11:37:41.352Z,33.20
2023-03-22T11:39:46.790Z,33.85
2023-03-22T11:41:48.999Z,34.10
2023-03-22T11:43:54.366Z,33.48
2023-03-22T11:45:58.220Z,34.65
2023-03-22T11:48:04.758Z,34.03
2023-03-22T11:50:10.632Z,33.89
2023-03-22T11:52:17.321Z,34.80
2023-03-22T11:54:27.010Z,33.74
2023-03-22T11:56:30.229Z,33.85
2023-03-22T11:58:47.719Z,33.51
2023-03-22T12:00:53.246Z,34.41
2023-03-22T12:02:58.652Z,31.77
2023-03-22T12:05:06.372Z,31.81
2023-03-22T12:07:15.545Z,32.12
2023-03-22T12:09:28.288Z,31.59
2023-03-22T12:11:38.283Z,30.77
2023-03-22T12:13:46.853Z,31.00
2023-03-22T12:15:53.172Z,31.36
2023-03-22T12:18:00.803Z,30.22
2023-03-22T12:20:10.319Z,30.63
2023-03-22T12:22:15.905Z,31.87
2023-03-22T12:24:25.519Z,31.27
2023-03-22T12:26:29.543Z,31.64
2023-03-22T12:28:35.642Z,31.66
2023-03-22T12:30:43.138Z,32.26
2023-03-22T12:32:49.785Z,31.89
2023-03-22T12:34:55.091Z,31.94
2023-03-22T12:37:07.358Z,31.39
2023-03-22T12:39:18.200Z,31.88
2023-03-22T12:41:25.917Z,32.48
2023-03-22T12:43:44.484Z,31.75
2023-03-22T12:45:50.542Z,32.83
2023-03-22T12:48:00.290Z,32.90
2023-03-22T12:50:07.234Z,33.14
2023-03-22T12:52:15.375Z,33.07
2023-03-22T12:54:19.293Z,32.70
2023-03-22T12:56:26.404Z,32.69
2023-03-22T12:58:28.476Z,33.18
2023-03-22T13:00:38.282Z,32.73
2023-03-22T13:02:46.532Z,32.65
2023-03-22T13:04:53.465Z,32.88
2023-03-22T13:06:58.345Z,33.81
2023-03-22T13:09:16.398Z,32.88
2023-03-22T13:11:24.400Z,33.30
2023-03-22T13:13:39.665Z,33.18
2023-03-22T13:15:57.832Z,33.39
2023-03-22T13:17:59.634Z,33.71
2023-03-22T13:20:20.114Z,34.79
2023-03-22T13:22:26.953Z,33.74
2023-03-22T13:24:28.576Z,34.70
2023-03-22T13:26:38.296Z,31.48
2023-03-22T13:28:40.793Z,31.99
2023-03-22T13:30:49.642Z,32.37
2023-03-22T13:32:55.994Z,32.93
2023-03-22T13:34:58.481Z,33.17
2023-03-22T13:37:00.565Z,33.63
2023-03-22T13:39:10.174Z,33.69
2023-03-22T13:41:21.531Z,33.32
2023-03-22T13:43:31.860Z,33.19
2023-03-22T13:45:34.443Z,33.58
2023-03-22T13:47:42.716Z,34.86
2023-03-22T13:49:52.698Z,34.01
2023-03-22T13:52:01.179Z,33.84
2023-03-22T13:54:08.527Z,33.50
2023-03-22T13:56:12.004Z,33.72
2023-03-22T13:58:35.042Z,33.00
2023-03-22T14:00:44.009Z,34.24
2023-03-22T14:02:46.788Z,35.19
2023-03-22T14:04:51.934Z,32.73
2023-03-22T14:06:57.066Z,31.35
2023-03-22T14:09:02.657Z,31.72
2023-03-22T14:11:17.042Z,30.11
2023-03-22T14:13:27.679Z,30.66
2023-03-22T14:15:35.072Z,31.33
2023-03-22T14:17:43.849Z,30.85
2023-03-22T14:19:46.061Z,31.47
